sensor_id;sensor_type;location;lat;lon;timestamp;P1;durP1;ratioP1;P2;durP2;ratioP2
44328;SDS011;30039;51.462;6.892;2023-05-14T00:00:16;8.43;;;6.80;;
44328;SDS011;30039;51.462;6.892;2023-05-14T00:03:02;13.93;;;8.52;;
44328;SDS011;30039;51.462;6.892;2023-05-14T00:05:48;11.35;;;8.00;;
44328;SDS011;30039;51.462;6.892;2023-05-14T00:08:34;12.73;;;8.90;;
44328;SDS011;30039;51.462;6.892;2023-05-14T00:11:20;12.55;;;8.38;;
44328;SDS011;30039;51.462;6.892;2023-05-14T00:14:06;10.73;;;8.20;;
44328;SDS011;30039;51.462;6.892;2023-05-14T00:16:52;11.65;;;8.82;;
44328;SDS011;30039;51.462;6.892;2023-05-14T00:19:38;11.68;;;8.90;;
44328;SDS011;30039;51.462;6.892;2023-05-14T00:22:26;9.63;;;8.55;;
44328;SDS011;30039;51.462;6.892;2023-05-14T00:25:12;11.18;;;8.05;;
44328;SDS011;30039;51.462;6.892;2023-05-14T00:27:57;11.95;;;8.95;;
44328;SDS011;30039;51.462;6.892;2023-05-14T00:30:43;11.85;;;9.60;;
44328;SDS011;30039;51.462;6.892;2023-05-14T00:33:29;13.20;;;9.95;;
44328;SDS011;30039;51.462;6.892;2023-05-14T00:36:14;13.73;;;10.40;;
44328;SDS011;30039;51.462;6.892;2023-05-14T00:39:03;10.77;;;9.48;;
44328;SDS011;30039;51.462;6.892;2023-05-14T00:41:49;13.52;;;9.93;;
44328;SDS011;30039;51.462;6.892;2023-05-14T00:44:35;12.70;;;9.13;;
44328;SDS011;30039;51.462;6.892;2023-05-14T00:47:20;13.00;;;9.88;;
44328;SDS011;30039;51.462;6.892;2023-05-14T00:50:07;13.93;;;9.55;;
44328;SDS011;30039;51.462;6.892;2023-05-14T00:52:54;13.65;;;9.90;;
44328;SDS011;30039;51.462;6.892;2023-05-14T00:55:40;12.63;;;9.90;;
44328;SDS011;30039;51.462;6.892;2023-05-14T00:58:26;12.80;;;9.32;;
44328;SDS011;30039;51.462;6.892;2023-05-14T01:01:12;10.43;;;9.00;;
44328;SDS011;30039;51.462;6.892;2023-05-14T01:03:59;13.52;;;9.50;;
44328;SDS011;30039;51.462;6.892;2023-05-14T01:09:48;16.35;;;10.52;;
44328;SDS011;30039;51.462;6.892;2023-05-14T01:12:39;15.75;;;9.77;;
44328;SDS011;30039;51.462;6.892;2023-05-14T01:15:27;15.07;;;10.27;;
44328;SDS011;30039;51.462;6.892;2023-05-14T01:18:15;13.02;;;9.63;;
44328;SDS011;30039;51.462;6.892;2023-05-14T01:21:02;12.43;;;9.77;;
44328;SDS011;30039;51.462;6.892;2023-05-14T01:23:49;12.15;;;8.63;;
44328;SDS011;30039;51.462;6.892;2023-05-14T01:26:34;15.25;;;10.00;;
44328;SDS011;30039;51.462;6.892;2023-05-14T01:29:21;14.25;;;10.07;;
44328;SDS011;30039;51.462;6.892;2023-05-14T01:32:07;11.63;;;9.57;;
44328;SDS011;30039;51.462;6.892;2023-05-14T01:34:54;13.48;;;9.60;;
44328;SDS011;30039;51.462;6.892;2023-05-14T01:37:41;14.45;;;10.75;;
44328;SDS011;30039;51.462;6.892;2023-05-14T01:40:28;14.57;;;9.68;;
44328;SDS011;30039;51.462;6.892;2023-05-14T01:43:14;15.63;;;11.07;;
44328;SDS011;30039;51.462;6.892;2023-05-14T01:46:00;13.82;;;9.80;;
44328;SDS011;30039;51.462;6.892;2023-05-14T01:48:45;16.50;;;11.95;;
44328;SDS011;30039;51.462;6.892;2023-05-14T01:51:32;14.68;;;10.73;;
44328;SDS011;30039;51.462;6.892;2023-05-14T01:54:18;17.05;;;10.23;;
44328;SDS011;30039;51.462;6.892;2023-05-14T01:57:04;19.90;;;11.50;;
44328;SDS011;30039;51.462;6.892;2023-05-14T01:59:50;15.73;;;11.15;;
44328;SDS011;30039;51.462;6.892;2023-05-14T02:02:36;16.05;;;11.05;;
44328;SDS011;30039;51.462;6.892;2023-05-14T02:05:22;14.32;;;11.52;;
44328;SDS011;30039;51.462;6.892;2023-05-14T02:08:07;15.90;;;11.10;;
44328;SDS011;30039;51.462;6.892;2023-05-14T02:10:53;14.80;;;11.02;;
44328;SDS011;30039;51.462;6.892;2023-05-14T02:13:39;14.82;;;10.98;;
44328;SDS011;30039;51.462;6.892;2023-05-14T02:16:25;14.77;;;10.55;;
44328;SDS011;30039;51.462;6.892;2023-05-14T02:19:10;14.27;;;10.95;;
44328;SDS011;30039;51.462;6.892;2023-05-14T02:21:58;15.23;;;11.27;;
44328;SDS011;30039;51.462;6.892;2023-05-14T02:24:44;15.77;;;10.88;;
44328;SDS011;30039;51.462;6.892;2023-05-14T02:27:30;16.17;;;10.98;;
44328;SDS011;30039;51.462;6.892;2023-05-14T02:30:16;16.30;;;11.43;;
44328;SDS011;30039;51.462;6.892;2023-05-14T02:33:01;15.63;;;11.30;;
44328;SDS011;30039;51.462;6.892;2023-05-14T02:35:47;15.77;;;11.13;;
44328;SDS011;30039;51.462;6.892;2023-05-14T02:38:33;15.55;;;12.25;;
44328;SDS011;30039;51.462;6.892;2023-05-14T02:41:18;15.88;;;11.35;;
44328;SDS011;30039;51.462;6.892;2023-05-14T02:44:04;14.85;;;11.38;;
44328;SDS011;30039;51.462;6.892;2023-05-14T02:46:50;13.95;;;11.23;;
44328;SDS011;30039;51.462;6.892;2023-05-14T02:49:35;14.90;;;11.27;;
44328;SDS011;30039;51.462;6.892;2023-05-14T02:52:21;16.50;;;11.88;;
44328;SDS011;30039;51.462;6.892;2023-05-14T02:55:07;15.35;;;11.00;;
44328;SDS011;30039;51.462;6.892;2023-05-14T02:57:53;15.10;;;10.77;;
44328;SDS011;30039;51.462;6.892;2023-05-14T03:00:39;15.07;;;11.30;;
44328;SDS011;30039;51.462;6.892;2023-05-14T03:03:28;15.02;;;10.90;;
44328;SDS011;30039;51.462;6.892;2023-05-14T03:06:14;14.43;;;11.10;;
44328;SDS011;30039;51.462;6.892;2023-05-14T03:09:00;14.75;;;11.15;;
44328;SDS011;30039;51.462;6.892;2023-05-14T03:11:46;15.45;;;11.30;;
44328;SDS011;30039;51.462;6.892;2023-05-14T03:14:31;18.63;;;11.23;;
44328;SDS011;30039;51.462;6.892;2023-05-14T03:17:17;14.63;;;10.45;;
44328;SDS011;30039;51.462;6.892;2023-05-14T03:20:03;18.13;;;11.90;;
44328;SDS011;30039;51.462;6.892;2023-05-14T03:22:49;14.85;;;10.48;;
44328;SDS011;30039;51.462;6.892;2023-05-14T03:25:34;15.15;;;11.15;;
44328;SDS011;30039;51.462;6.892;2023-05-14T03:28:20;13.02;;;10.63;;
44328;SDS011;30039;51.462;6.892;2023-05-14T03:31:06;13.43;;;10.75;;
44328;SDS011;30039;51.462;6.892;2023-05-14T03:33:51;14.00;;;11.50;;
44328;SDS011;30039;51.462;6.892;2023-05-14T03:36:37;13.30;;;10.35;;
44328;SDS011;30039;51.462;6.892;2023-05-14T03:39:24;14.63;;;10.88;;
44328;SDS011;30039;51.462;6.892;2023-05-14T03:42:09;15.32;;;9.90;;
44328;SDS011;30039;51.462;6.892;2023-05-14T03:44:55;13.60;;;10.77;;
44328;SDS011;30039;51.462;6.892;2023-05-14T03:47:41;11.70;;;9.90;;
44328;SDS011;30039;51.462;6.892;2023-05-14T03:50:27;13.95;;;11.00;;
44328;SDS011;30039;51.462;6.892;2023-05-14T03:53:12;13.88;;;10.40;;
44328;SDS011;30039;51.462;6.892;2023-05-14T03:55:58;13.18;;;11.07;;
44328;SDS011;30039;51.462;6.892;2023-05-14T03:58:44;14.75;;;10.68;;
44328;SDS011;30039;51.462;6.892;2023-05-14T04:01:30;13.90;;;11.05;;
44328;SDS011;30039;51.462;6.892;2023-05-14T04:04:15;15.32;;;10.43;;
44328;SDS011;30039;51.462;6.892;2023-05-14T04:07:01;18.42;;;13.00;;
44328;SDS011;30039;51.462;6.892;2023-05-14T04:09:47;17.80;;;12.27;;
44328;SDS011;30039;51.462;6.892;2023-05-14T04:12:32;17.92;;;11.75;;
44328;SDS011;30039;51.462;6.892;2023-05-14T04:15:18;19.85;;;12.43;;
44328;SDS011;30039;51.462;6.892;2023-05-14T04:18:04;15.93;;;11.27;;
44328;SDS011;30039;51.462;6.892;2023-05-14T04:20:51;15.73;;;10.70;;
44328;SDS011;30039;51.462;6.892;2023-05-14T04:23:43;13.05;;;10.20;;
44328;SDS011;30039;51.462;6.892;2023-05-14T04:26:29;15.43;;;10.80;;
44328;SDS011;30039;51.462;6.892;2023-05-14T04:29:15;14.82;;;11.38;;
44328;SDS011;30039;51.462;6.892;2023-05-14T04:32:05;12.40;;;10.43;;
44328;SDS011;30039;51.462;6.892;2023-05-14T04:34:51;13.75;;;10.57;;
44328;SDS011;30039;51.462;6.892;2023-05-14T04:37:37;14.18;;;11.30;;
44328;SDS011;30039;51.462;6.892;2023-05-14T04:40:24;13.63;;;10.73;;
44328;SDS011;30039;51.462;6.892;2023-05-14T04:43:10;12.65;;;10.52;;
44328;SDS011;30039;51.462;6.892;2023-05-14T04:45:56;13.27;;;11.20;;
44328;SDS011;30039;51.462;6.892;2023-05-14T04:48:41;12.35;;;9.98;;
44328;SDS011;30039;51.462;6.892;2023-05-14T04:51:28;15.40;;;10.98;;
44328;SDS011;30039;51.462;6.892;2023-05-14T04:54:15;13.05;;;10.55;;
44328;SDS011;30039;51.462;6.892;2023-05-14T04:57:04;14.77;;;11.40;;
44328;SDS011;30039;51.462;6.892;2023-05-14T04:59:51;13.85;;;10.60;;
44328;SDS011;30039;51.462;6.892;2023-05-14T05:02:37;17.42;;;10.90;;
44328;SDS011;30039;51.462;6.892;2023-05-14T05:05:24;16.15;;;12.25;;
44328;SDS011;30039;51.462;6.892;2023-05-14T05:08:10;14.68;;;11.68;;
44328;SDS011;30039;51.462;6.892;2023-05-14T05:10:56;15.48;;;11.95;;
44328;SDS011;30039;51.462;6.892;2023-05-14T05:13:42;14.15;;;11.20;;
44328;SDS011;30039;51.462;6.892;2023-05-14T05:16:28;14.05;;;11.43;;
44328;SDS011;30039;51.462;6.892;2023-05-14T05:19:15;14.60;;;11.75;;
44328;SDS011;30039;51.462;6.892;2023-05-14T05:22:01;15.18;;;11.20;;
44328;SDS011;30039;51.462;6.892;2023-05-14T05:24:49;15.98;;;11.60;;
44328;SDS011;30039;51.462;6.892;2023-05-14T05:27:35;19.30;;;12.15;;
44328;SDS011;30039;51.462;6.892;2023-05-14T05:30:21;17.38;;;11.88;;
44328;SDS011;30039;51.462;6.892;2023-05-14T05:33:07;14.70;;;11.63;;
44328;SDS011;30039;51.462;6.892;2023-05-14T05:35:52;15.15;;;11.38;;
44328;SDS011;30039;51.462;6.892;2023-05-14T05:38:38;14.52;;;11.68;;
44328;SDS011;30039;51.462;6.892;2023-05-14T05:41:24;16.33;;;11.02;;
44328;SDS011;30039;51.462;6.892;2023-05-14T05:44:10;14.45;;;10.88;;
44328;SDS011;30039;51.462;6.892;2023-05-14T05:46:56;14.70;;;10.88;;
44328;SDS011;30039;51.462;6.892;2023-05-14T05:49:42;13.85;;;10.60;;
44328;SDS011;30039;51.462;6.892;2023-05-14T05:52:28;14.60;;;11.13;;
44328;SDS011;30039;51.462;6.892;2023-05-14T05:55:14;15.65;;;11.00;;
44328;SDS011;30039;51.462;6.892;2023-05-14T05:58:00;13.63;;;10.27;;
44328;SDS011;30039;51.462;6.892;2023-05-14T06:00:45;15.00;;;10.98;;
44328;SDS011;30039;51.462;6.892;2023-05-14T06:03:31;14.35;;;11.00;;
44328;SDS011;30039;51.462;6.892;2023-05-14T06:06:17;13.25;;;10.65;;
44328;SDS011;30039;51.462;6.892;2023-05-14T06:09:03;15.27;;;11.23;;
44328;SDS011;30039;51.462;6.892;2023-05-14T06:11:50;17.48;;;11.13;;
44328;SDS011;30039;51.462;6.892;2023-05-14T06:14:35;17.83;;;10.98;;
44328;SDS011;30039;51.462;6.892;2023-05-14T06:17:21;12.98;;;10.75;;
44328;SDS011;30039;51.462;6.892;2023-05-14T06:20:07;15.82;;;10.80;;
44328;SDS011;30039;51.462;6.892;2023-05-14T06:22:55;13.10;;;9.57;;
44328;SDS011;30039;51.462;6.892;2023-05-14T06:25:41;13.18;;;9.43;;
44328;SDS011;30039;51.462;6.892;2023-05-14T06:28:26;13.18;;;9.45;;
44328;SDS011;30039;51.462;6.892;2023-05-14T06:31:14;14.02;;;10.05;;
44328;SDS011;30039;51.462;6.892;2023-05-14T06:34:00;12.68;;;9.77;;
44328;SDS011;30039;51.462;6.892;2023-05-14T06:36:46;12.27;;;9.55;;
44328;SDS011;30039;51.462;6.892;2023-05-14T06:39:32;12.88;;;8.27;;
44328;SDS011;30039;51.462;6.892;2023-05-14T06:42:18;8.80;;;7.47;;
44328;SDS011;30039;51.462;6.892;2023-05-14T06:45:05;11.35;;;7.45;;
44328;SDS011;30039;51.462;6.892;2023-05-14T06:47:51;10.20;;;7.50;;
44328;SDS011;30039;51.462;6.892;2023-05-14T06:50:37;9.30;;;7.57;;
44328;SDS011;30039;51.462;6.892;2023-05-14T06:53:22;9.43;;;7.03;;
44328;SDS011;30039;51.462;6.892;2023-05-14T06:56:09;10.43;;;7.40;;
44328;SDS011;30039;51.462;6.892;2023-05-14T06:58:55;8.27;;;6.55;;
44328;SDS011;30039;51.462;6.892;2023-05-14T07:01:42;8.68;;;5.60;;
44328;SDS011;30039;51.462;6.892;2023-05-14T07:04:27;8.25;;;5.60;;
44328;SDS011;30039;51.462;6.892;2023-05-14T07:07:13;6.05;;;5.03;;
44328;SDS011;30039;51.462;6.892;2023-05-14T07:10:02;7.15;;;5.18;;
44328;SDS011;30039;51.462;6.892;2023-05-14T07:12:48;9.25;;;4.82;;
44328;SDS011;30039;51.462;6.892;2023-05-14T07:15:34;8.25;;;4.63;;
44328;SDS011;30039;51.462;6.892;2023-05-14T07:18:20;5.10;;;4.43;;
44328;SDS011;30039;51.462;6.892;2023-05-14T07:21:06;6.60;;;4.38;;
44328;SDS011;30039;51.462;6.892;2023-05-14T07:23:51;6.43;;;4.13;;
44328;SDS011;30039;51.462;6.892;2023-05-14T07:26:37;4.82;;;4.03;;
44328;SDS011;30039;51.462;6.892;2023-05-14T07:29:23;8.00;;;5.13;;
44328;SDS011;30039;51.462;6.892;2023-05-14T07:32:10;5.97;;;4.22;;
44328;SDS011;30039;51.462;6.892;2023-05-14T07:34:55;5.28;;;3.95;;
44328;SDS011;30039;51.462;6.892;2023-05-14T07:37:41;7.63;;;4.38;;
44328;SDS011;30039;51.462;6.892;2023-05-14T07:40:27;9.55;;;4.07;;
44328;SDS011;30039;51.462;6.892;2023-05-14T07:43:13;6.63;;;4.38;;
44328;SDS011;30039;51.462;6.892;2023-05-14T07:45:59;5.68;;;4.75;;
44328;SDS011;30039;51.462;6.892;2023-05-14T07:48:45;6.50;;;4.40;;
44328;SDS011;30039;51.462;6.892;2023-05-14T07:51:31;7.72;;;4.10;;
44328;SDS011;30039;51.462;6.892;2023-05-14T07:54:17;6.90;;;5.60;;
44328;SDS011;30039;51.462;6.892;2023-05-14T07:57:03;5.13;;;4.07;;
44328;SDS011;30039;51.462;6.892;2023-05-14T07:59:49;6.53;;;3.88;;
44328;SDS011;30039;51.462;6.892;2023-05-14T08:02:34;5.88;;;4.10;;
44328;SDS011;30039;51.462;6.892;2023-05-14T08:05:20;5.10;;;3.42;;
44328;SDS011;30039;51.462;6.892;2023-05-14T08:08:06;4.82;;;3.90;;
44328;SDS011;30039;51.462;6.892;2023-05-14T08:10:52;6.05;;;3.65;;
44328;SDS011;30039;51.462;6.892;2023-05-14T08:13:38;5.43;;;3.88;;
44328;SDS011;30039;51.462;6.892;2023-05-14T08:16:24;5.25;;;3.25;;
44328;SDS011;30039;51.462;6.892;2023-05-14T08:19:11;4.60;;;3.28;;
44328;SDS011;30039;51.462;6.892;2023-05-14T08:21:57;5.90;;;3.58;;
44328;SDS011;30039;51.462;6.892;2023-05-14T08:24:42;5.88;;;3.10;;
44328;SDS011;30039;51.462;6.892;2023-05-14T08:27:28;5.38;;;3.80;;
44328;SDS011;30039;51.462;6.892;2023-05-14T08:30:14;4.55;;;3.40;;
44328;SDS011;30039;51.462;6.892;2023-05-14T08:33:00;5.28;;;3.20;;
44328;SDS011;30039;51.462;6.892;2023-05-14T08:35:45;5.07;;;3.60;;
44328;SDS011;30039;51.462;6.892;2023-05-14T08:38:31;5.28;;;3.05;;
44328;SDS011;30039;51.462;6.892;2023-05-14T08:41:17;4.45;;;3.00;;
44328;SDS011;30039;51.462;6.892;2023-05-14T08:44:09;3.90;;;3.15;;
44328;SDS011;30039;51.462;6.892;2023-05-14T08:46:56;5.05;;;3.30;;
44328;SDS011;30039;51.462;6.892;2023-05-14T08:49:43;5.15;;;2.78;;
44328;SDS011;30039;51.462;6.892;2023-05-14T08:52:31;4.70;;;3.70;;
44328;SDS011;30039;51.462;6.892;2023-05-14T08:55:16;4.88;;;3.05;;
44328;SDS011;30039;51.462;6.892;2023-05-14T08:58:03;5.05;;;3.30;;
44328;SDS011;30039;51.462;6.892;2023-05-14T09:00:48;5.45;;;3.75;;
44328;SDS011;30039;51.462;6.892;2023-05-14T09:03:34;3.65;;;3.13;;
44328;SDS011;30039;51.462;6.892;2023-05-14T09:06:20;4.70;;;2.95;;
44328;SDS011;30039;51.462;6.892;2023-05-14T09:09:06;5.18;;;2.80;;
44328;SDS011;30039;51.462;6.892;2023-05-14T09:11:52;3.92;;;2.72;;
44328;SDS011;30039;51.462;6.892;2023-05-14T09:14:38;3.90;;;3.00;;
44328;SDS011;30039;51.462;6.892;2023-05-14T09:17:25;4.03;;;2.90;;
44328;SDS011;30039;51.462;6.892;2023-05-14T09:20:11;5.93;;;3.90;;
44328;SDS011;30039;51.462;6.892;2023-05-14T09:22:57;4.28;;;3.00;;
44328;SDS011;30039;51.462;6.892;2023-05-14T09:25:44;4.18;;;3.08;;
44328;SDS011;30039;51.462;6.892;2023-05-14T09:28:31;4.38;;;2.60;;
44328;SDS011;30039;51.462;6.892;2023-05-14T09:31:17;3.30;;;2.70;;
44328;SDS011;30039;51.462;6.892;2023-05-14T09:34:03;3.90;;;2.55;;
44328;SDS011;30039;51.462;6.892;2023-05-14T09:36:49;5.93;;;2.63;;
44328;SDS011;30039;51.462;6.892;2023-05-14T09:39:36;4.85;;;3.00;;
44328;SDS011;30039;51.462;6.892;2023-05-14T09:42:22;3.80;;;2.50;;
44328;SDS011;30039;51.462;6.892;2023-05-14T09:45:08;4.03;;;2.67;;
44328;SDS011;30039;51.462;6.892;2023-05-14T09:47:54;3.60;;;2.70;;
44328;SDS011;30039;51.462;6.892;2023-05-14T09:50:43;3.28;;;2.33;;
44328;SDS011;30039;51.462;6.892;2023-05-14T09:53:28;5.00;;;2.30;;
44328;SDS011;30039;51.462;6.892;2023-05-14T09:56:15;2.97;;;2.10;;
44328;SDS011;30039;51.462;6.892;2023-05-14T09:59:01;3.10;;;2.05;;
44328;SDS011;30039;51.462;6.892;2023-05-14T10:01:47;2.90;;;2.13;;
44328;SDS011;30039;51.462;6.892;2023-05-14T10:04:33;3.72;;;2.35;;
44328;SDS011;30039;51.462;6.892;2023-05-14T10:07:25;2.92;;;2.17;;
44328;SDS011;30039;51.462;6.892;2023-05-14T10:10:12;4.50;;;2.35;;
44328;SDS011;30039;51.462;6.892;2023-05-14T10:13:03;4.55;;;2.50;;
44328;SDS011;30039;51.462;6.892;2023-05-14T10:18:40;3.00;;;2.33;;
44328;SDS011;30039;51.462;6.892;2023-05-14T10:21:27;3.78;;;2.35;;
44328;SDS011;30039;51.462;6.892;2023-05-14T10:24:14;3.20;;;2.15;;
44328;SDS011;30039;51.462;6.892;2023-05-14T10:27:00;4.25;;;2.67;;
44328;SDS011;30039;51.462;6.892;2023-05-14T10:29:54;4.35;;;2.60;;
44328;SDS011;30039;51.462;6.892;2023-05-14T10:32:41;4.43;;;2.28;;
44328;SDS011;30039;51.462;6.892;2023-05-14T10:35:28;3.78;;;2.30;;
44328;SDS011;30039;51.462;6.892;2023-05-14T10:38:14;3.78;;;2.50;;
44328;SDS011;30039;51.462;6.892;2023-05-14T10:41:00;6.80;;;3.08;;
44328;SDS011;30039;51.462;6.892;2023-05-14T10:43:46;4.82;;;2.75;;
44328;SDS011;30039;51.462;6.892;2023-05-14T10:46:32;3.72;;;2.40;;
44328;SDS011;30039;51.462;6.892;2023-05-14T10:49:18;3.15;;;2.25;;
44328;SDS011;30039;51.462;6.892;2023-05-14T10:52:06;4.63;;;2.70;;
44328;SDS011;30039;51.462;6.892;2023-05-14T10:54:53;5.55;;;2.47;;
44328;SDS011;30039;51.462;6.892;2023-05-14T10:57:39;6.60;;;2.90;;
44328;SDS011;30039;51.462;6.892;2023-05-14T11:00:26;3.38;;;2.38;;
44328;SDS011;30039;51.462;6.892;2023-05-14T11:03:12;3.08;;;2.67;;
44328;SDS011;30039;51.462;6.892;2023-05-14T11:06:01;5.45;;;3.13;;
44328;SDS011;30039;51.462;6.892;2023-05-14T11:08:48;5.10;;;2.90;;
44328;SDS011;30039;51.462;6.892;2023-05-14T11:11:35;3.47;;;2.60;;
44328;SDS011;30039;51.462;6.892;2023-05-14T11:14:22;3.03;;;2.70;;
44328;SDS011;30039;51.462;6.892;2023-05-14T11:17:08;4.70;;;3.13;;
44328;SDS011;30039;51.462;6.892;2023-05-14T11:19:54;4.15;;;3.42;;
44328;SDS011;30039;51.462;6.892;2023-05-14T11:22:41;5.10;;;3.20;;
44328;SDS011;30039;51.462;6.892;2023-05-14T11:25:27;5.32;;;2.42;;
44328;SDS011;30039;51.462;6.892;2023-05-14T11:28:13;6.95;;;2.10;;
44328;SDS011;30039;51.462;6.892;2023-05-14T11:30:59;2.45;;;1.80;;
44328;SDS011;30039;51.462;6.892;2023-05-14T11:33:44;3.40;;;2.30;;
44328;SDS011;30039;51.462;6.892;2023-05-14T11:36:30;3.28;;;2.20;;
44328;SDS011;30039;51.462;6.892;2023-05-14T11:39:19;4.43;;;2.45;;
44328;SDS011;30039;51.462;6.892;2023-05-14T11:42:08;2.80;;;2.08;;
44328;SDS011;30039;51.462;6.892;2023-05-14T11:44:56;4.07;;;2.13;;
44328;SDS011;30039;51.462;6.892;2023-05-14T11:47:42;2.92;;;2.08;;
44328;SDS011;30039;51.462;6.892;2023-05-14T11:50:28;3.17;;;2.20;;
44328;SDS011;30039;51.462;6.892;2023-05-14T11:53:26;3.70;;;2.03;;
44328;SDS011;30039;51.462;6.892;2023-05-14T11:56:12;3.25;;;2.25;;
44328;SDS011;30039;51.462;6.892;2023-05-14T11:58:58;3.47;;;1.90;;
44328;SDS011;30039;51.462;6.892;2023-05-14T12:01:44;3.13;;;1.92;;
44328;SDS011;30039;51.462;6.892;2023-05-14T12:04:32;3.67;;;2.17;;
44328;SDS011;30039;51.462;6.892;2023-05-14T12:07:18;2.60;;;2.10;;
44328;SDS011;30039;51.462;6.892;2023-05-14T12:10:04;4.72;;;2.30;;
44328;SDS011;30039;51.462;6.892;2023-05-14T12:12:50;2.95;;;2.08;;
44328;SDS011;30039;51.462;6.892;2023-05-14T12:15:36;4.70;;;2.25;;
44328;SDS011;30039;51.462;6.892;2023-05-14T12:18:29;2.60;;;1.98;;
44328;SDS011;30039;51.462;6.892;2023-05-14T12:21:15;4.72;;;2.45;;
44328;SDS011;30039;51.462;6.892;2023-05-14T12:24:01;3.20;;;2.45;;
44328;SDS011;30039;51.462;6.892;2023-05-14T12:26:47;3.88;;;2.53;;
44328;SDS011;30039;51.462;6.892;2023-05-14T12:29:34;3.88;;;2.30;;
44328;SDS011;30039;51.462;6.892;2023-05-14T12:32:22;3.45;;;2.30;;
44328;SDS011;30039;51.462;6.892;2023-05-14T12:35:09;4.20;;;2.20;;
44328;SDS011;30039;51.462;6.892;2023-05-14T12:37:55;3.33;;;2.00;;
44328;SDS011;30039;51.462;6.892;2023-05-14T12:40:42;3.72;;;2.28;;
44328;SDS011;30039;51.462;6.892;2023-05-14T12:43:27;3.35;;;2.40;;
44328;SDS011;30039;51.462;6.892;2023-05-14T12:46:15;4.97;;;3.00;;
44328;SDS011;30039;51.462;6.892;2023-05-14T12:49:01;3.85;;;2.35;;
44328;SDS011;30039;51.462;6.892;2023-05-14T12:51:47;5.03;;;2.28;;
44328;SDS011;30039;51.462;6.892;2023-05-14T12:54:33;2.72;;;2.20;;
44328;SDS011;30039;51.462;6.892;2023-05-14T12:57:18;2.83;;;2.20;;
44328;SDS011;30039;51.462;6.892;2023-05-14T13:00:04;3.03;;;2.13;;
44328;SDS011;30039;51.462;6.892;2023-05-14T13:02:55;2.25;;;1.92;;
44328;SDS011;30039;51.462;6.892;2023-05-14T13:05:40;4.32;;;2.35;;
44328;SDS011;30039;51.462;6.892;2023-05-14T13:08:26;2.40;;;1.92;;
44328;SDS011;30039;51.462;6.892;2023-05-14T13:11:13;2.95;;;2.03;;
44328;SDS011;30039;51.462;6.892;2023-05-14T13:13:59;3.30;;;2.08;;
44328;SDS011;30039;51.462;6.892;2023-05-14T13:16:45;3.17;;;2.50;;
44328;SDS011;30039;51.462;6.892;2023-05-14T13:19:31;5.78;;;2.10;;
44328;SDS011;30039;51.462;6.892;2023-05-14T13:22:17;4.15;;;2.20;;
44328;SDS011;30039;51.462;6.892;2023-05-14T13:25:03;2.83;;;2.13;;
44328;SDS011;30039;51.462;6.892;2023-05-14T13:27:49;2.45;;;1.90;;
44328;SDS011;30039;51.462;6.892;2023-05-14T13:30:38;4.10;;;1.90;;
44328;SDS011;30039;51.462;6.892;2023-05-14T13:33:24;2.65;;;1.98;;
44328;SDS011;30039;51.462;6.892;2023-05-14T13:36:10;2.78;;;1.95;;
44328;SDS011;30039;51.462;6.892;2023-05-14T13:38:56;5.45;;;2.97;;
44328;SDS011;30039;51.462;6.892;2023-05-14T13:41:42;3.25;;;2.03;;
44328;SDS011;30039;51.462;6.892;2023-05-14T13:44:27;10.45;;;5.22;;
44328;SDS011;30039;51.462;6.892;2023-05-14T13:47:13;4.85;;;2.00;;
44328;SDS011;30039;51.462;6.892;2023-05-14T13:49:59;4.22;;;2.38;;
44328;SDS011;30039;51.462;6.892;2023-05-14T13:52:45;3.58;;;2.47;;
44328;SDS011;30039;51.462;6.892;2023-05-14T13:55:32;3.75;;;2.58;;
44328;SDS011;30039;51.462;6.892;2023-05-14T13:58:18;4.45;;;2.67;;
44328;SDS011;30039;51.462;6.892;2023-05-14T14:01:04;4.15;;;2.50;;
44328;SDS011;30039;51.462;6.892;2023-05-14T14:03:49;7.13;;;3.55;;
44328;SDS011;30039;51.462;6.892;2023-05-14T14:06:35;3.67;;;2.63;;
44328;SDS011;30039;51.462;6.892;2023-05-14T14:09:21;3.10;;;2.45;;
44328;SDS011;30039;51.462;6.892;2023-05-14T14:12:08;3.75;;;2.47;;
44328;SDS011;30039;51.462;6.892;2023-05-14T14:14:54;4.10;;;2.05;;
44328;SDS011;30039;51.462;6.892;2023-05-14T14:17:39;3.58;;;2.28;;
44328;SDS011;30039;51.462;6.892;2023-05-14T14:20:26;5.53;;;2.38;;
44328;SDS011;30039;51.462;6.892;2023-05-14T14:23:11;2.80;;;2.10;;
44328;SDS011;30039;51.462;6.892;2023-05-14T14:25:57;3.90;;;2.15;;
44328;SDS011;30039;51.462;6.892;2023-05-14T14:28:43;3.35;;;2.30;;
44328;SDS011;30039;51.462;6.892;2023-05-14T14:31:29;4.68;;;1.98;;
44328;SDS011;30039;51.462;6.892;2023-05-14T14:34:14;2.42;;;1.92;;
44328;SDS011;30039;51.462;6.892;2023-05-14T14:37:00;2.97;;;2.20;;
44328;SDS011;30039;51.462;6.892;2023-05-14T14:39:46;3.13;;;2.35;;
44328;SDS011;30039;51.462;6.892;2023-05-14T14:42:33;4.60;;;3.45;;
44328;SDS011;30039;51.462;6.892;2023-05-14T14:45:18;4.22;;;2.10;;
44328;SDS011;30039;51.462;6.892;2023-05-14T14:51:09;4.80;;;1.90;;
44328;SDS011;30039;51.462;6.892;2023-05-14T14:53:55;2.38;;;1.85;;
44328;SDS011;30039;51.462;6.892;2023-05-14T14:56:41;3.17;;;2.08;;
44328;SDS011;30039;51.462;6.892;2023-05-14T14:59:27;3.38;;;2.28;;
44328;SDS011;30039;51.462;6.892;2023-05-14T15:02:13;2.92;;;2.20;;
44328;SDS011;30039;51.462;6.892;2023-05-14T15:04:59;4.05;;;2.45;;
44328;SDS011;30039;51.462;6.892;2023-05-14T15:07:45;3.30;;;2.40;;
44328;SDS011;30039;51.462;6.892;2023-05-14T15:10:32;2.53;;;2.00;;
44328;SDS011;30039;51.462;6.892;2023-05-14T15:13:22;4.22;;;2.10;;
44328;SDS011;30039;51.462;6.892;2023-05-14T15:16:08;3.47;;;2.00;;
44328;SDS011;30039;51.462;6.892;2023-05-14T15:18:54;5.07;;;2.17;;
44328;SDS011;30039;51.462;6.892;2023-05-14T15:21:40;2.90;;;2.10;;
44328;SDS011;30039;51.462;6.892;2023-05-14T15:24:27;4.13;;;2.05;;
44328;SDS011;30039;51.462;6.892;2023-05-14T15:27:12;4.25;;;2.25;;
44328;SDS011;30039;51.462;6.892;2023-05-14T15:29:58;4.13;;;2.60;;
44328;SDS011;30039;51.462;6.892;2023-05-14T15:32:44;5.10;;;2.50;;
44328;SDS011;30039;51.462;6.892;2023-05-14T15:35:30;5.03;;;2.42;;
44328;SDS011;30039;51.462;6.892;2023-05-14T15:38:16;3.42;;;2.10;;
44328;SDS011;30039;51.462;6.892;2023-05-14T15:41:03;4.45;;;2.20;;
44328;SDS011;30039;51.462;6.892;2023-05-14T15:43:48;3.20;;;2.25;;
44328;SDS011;30039;51.462;6.892;2023-05-14T15:46:35;2.97;;;2.30;;
44328;SDS011;30039;51.462;6.892;2023-05-14T15:49:22;4.72;;;2.10;;
44328;SDS011;30039;51.462;6.892;2023-05-14T15:52:07;5.63;;;2.20;;
44328;SDS011;30039;51.462;6.892;2023-05-14T15:54:54;2.97;;;2.28;;
44328;SDS011;30039;51.462;6.892;2023-05-14T15:57:41;3.40;;;2.15;;
44328;SDS011;30039;51.462;6.892;2023-05-14T16:00:27;2.88;;;1.90;;
44328;SDS011;30039;51.462;6.892;2023-05-14T16:03:13;3.08;;;2.17;;
44328;SDS011;30039;51.462;6.892;2023-05-14T16:05:59;3.88;;;2.42;;
44328;SDS011;30039;51.462;6.892;2023-05-14T16:08:44;3.13;;;2.15;;
44328;SDS011;30039;51.462;6.892;2023-05-14T16:11:30;3.38;;;2.20;;
44328;SDS011;30039;51.462;6.892;2023-05-14T16:14:17;2.58;;;1.95;;
44328;SDS011;30039;51.462;6.892;2023-05-14T16:17:03;2.88;;;2.10;;
44328;SDS011;30039;51.462;6.892;2023-05-14T16:19:49;3.53;;;2.63;;
44328;SDS011;30039;51.462;6.892;2023-05-14T16:22:35;4.18;;;2.25;;
44328;SDS011;30039;51.462;6.892;2023-05-14T16:25:20;2.70;;;2.15;;
44328;SDS011;30039;51.462;6.892;2023-05-14T16:28:07;2.88;;;2.22;;
44328;SDS011;30039;51.462;6.892;2023-05-14T16:30:53;3.00;;;2.22;;
44328;SDS011;30039;51.462;6.892;2023-05-14T16:33:39;4.13;;;2.67;;
44328;SDS011;30039;51.462;6.892;2023-05-14T16:36:25;3.10;;;2.22;;
44328;SDS011;30039;51.462;6.892;2023-05-14T16:39:13;3.72;;;2.15;;